sensor_id;sensor_type;location;lat;lon;timestamp;temperature;humidity
728;DHT22;347;48.780;9.158;2022-12-31T00:01:32;13.00;55.70
728;DHT22;347;48.780;9.158;2022-12-31T00:03:58;13.00;55.60
728;DHT22;347;48.780;9.158;2022-12-31T00:06:32;13.00;55.70
728;DHT22;347;48.780;9.158;2022-12-31T00:09:01;13.00;55.70
728;DHT22;347;48.780;9.158;2022-12-31T00:11:28;13.00;55.60
728;DHT22;347;48.780;9.158;2022-12-31T00:13:55;13.00;55.60
728;DHT22;347;48.780;9.158;2022-12-31T00:16:22;13.00;55.50
728;DHT22;347;48.780;9.158;2022-12-31T00:18:50;13.00;55.50
728;DHT22;347;48.780;9.158;2022-12-31T00:21:17;13.00;55.40
728;DHT22;347;48.780;9.158;2022-12-31T00:23:42;13.00;55.00
728;DHT22;347;48.780;9.158;2022-12-31T00:26:14;13.10;55.10
728;DHT22;347;48.780;9.158;2022-12-31T00:28:40;13.10;54.80
728;DHT22;347;48.780;9.158;2022-12-31T00:31:12;13.10;54.70
728;DHT22;347;48.780;9.158;2022-12-31T00:33:39;13.20;54.20
728;DHT22;347;48.780;9.158;2022-12-31T00:36:13;13.20;54.20
728;DHT22;347;48.780;9.158;2022-12-31T00:38:40;13.20;54.20
728;DHT22;347;48.780;9.158;2022-12-31T00:41:07;13.20;54.20
728;DHT22;347;48.780;9.158;2022-12-31T00:43:33;13.20;54.20
728;DHT22;347;48.780;9.158;2022-12-31T00:45:59;13.30;54.30
728;DHT22;347;48.780;9.158;2022-12-31T00:48:25;13.30;54.00
728;DHT22;347;48.780;9.158;2022-12-31T00:50:52;13.30;53.80
728;DHT22;347;48.780;9.158;2022-12-31T00:53:18;13.40;53.60
728;DHT22;347;48.780;9.158;2022-12-31T00:55:43;13.40;53.50
728;DHT22;347;48.780;9.158;2022-12-31T00:58:09;13.40;53.40
728;DHT22;347;48.780;9.158;2022-12-31T01:00:36;13.40;53.10
728;DHT22;347;48.780;9.158;2022-12-31T01:03:02;13.50;53.10
728;DHT22;347;48.780;9.158;2022-12-31T01:05:29;13.50;52.60
728;DHT22;347;48.780;9.158;2022-12-31T01:07:55;13.60;52.20
728;DHT22;347;48.780;9.158;2022-12-31T01:10:21;13.60;51.70
728;DHT22;347;48.780;9.158;2022-12-31T01:13:06;13.70;51.70
728;DHT22;347;48.780;9.158;2022-12-31T01:15:33;13.80;51.30
728;DHT22;347;48.780;9.158;2022-12-31T01:18:00;13.80;51.00
728;DHT22;347;48.780;9.158;2022-12-31T01:20:26;13.80;50.60
728;DHT22;347;48.780;9.158;2022-12-31T01:22:51;13.90;50.60
728;DHT22;347;48.780;9.158;2022-12-31T01:25:17;13.80;50.70
728;DHT22;347;48.780;9.158;2022-12-31T01:27:43;13.90;50.70
728;DHT22;347;48.780;9.158;2022-12-31T01:30:09;13.90;50.40
728;DHT22;347;48.780;9.158;2022-12-31T01:32:34;13.90;50.10
728;DHT22;347;48.780;9.158;2022-12-31T01:35:00;13.90;50.10
728;DHT22;347;48.780;9.158;2022-12-31T01:37:26;14.00;50.10
728;DHT22;347;48.780;9.158;2022-12-31T01:39:52;14.00;49.80
728;DHT22;347;48.780;9.158;2022-12-31T01:42:18;14.00;49.40
728;DHT22;347;48.780;9.158;2022-12-31T01:44:52;14.00;49.30
728;DHT22;347;48.780;9.158;2022-12-31T01:47:37;14.00;49.40
728;DHT22;347;48.780;9.158;2022-12-31T01:50:14;14.00;49.40
728;DHT22;347;48.780;9.158;2022-12-31T01:52:43;14.00;49.20
728;DHT22;347;48.780;9.158;2022-12-31T01:57:38;14.00;48.90
728;DHT22;347;48.780;9.158;2022-12-31T02:00:05;14.00;48.80
728;DHT22;347;48.780;9.158;2022-12-31T02:02:31;14.10;48.70
728;DHT22;347;48.780;9.158;2022-12-31T02:04:59;14.10;48.40
728;DHT22;347;48.780;9.158;2022-12-31T02:07:27;14.00;48.20
728;DHT22;347;48.780;9.158;2022-12-31T02:09:53;14.10;47.90
728;DHT22;347;48.780;9.158;2022-12-31T02:12:19;14.10;47.50
728;DHT22;347;48.780;9.158;2022-12-31T02:14:48;14.10;47.20
728;DHT22;347;48.780;9.158;2022-12-31T02:20:20;14.10;46.60
728;DHT22;347;48.780;9.158;2022-12-31T02:30:55;14.20;45.80
728;DHT22;347;48.780;9.158;2022-12-31T02:33:28;14.20;45.70
728;DHT22;347;48.780;9.158;2022-12-31T02:36:02;14.20;45.80
728;DHT22;347;48.780;9.158;2022-12-31T02:38:34;14.20;45.70
728;DHT22;347;48.780;9.158;2022-12-31T02:41:02;14.20;45.30
728;DHT22;347;48.780;9.158;2022-12-31T02:43:27;14.20;45.30
728;DHT22;347;48.780;9.158;2022-12-31T02:46:22;14.20;45.30
728;DHT22;347;48.780;9.158;2022-12-31T02:48:51;14.20;45.30
728;DHT22;347;48.780;9.158;2022-12-31T02:51:46;14.20;45.30
728;DHT22;347;48.780;9.158;2022-12-31T03:02:15;14.30;44.40
728;DHT22;347;48.780;9.158;2022-12-31T03:04:50;14.30;43.70
728;DHT22;347;48.780;9.158;2022-12-31T03:07:25;14.30;43.40
728;DHT22;347;48.780;9.158;2022-12-31T03:09:51;14.40;43.40
728;DHT22;347;48.780;9.158;2022-12-31T03:12:20;14.40;43.40
728;DHT22;347;48.780;9.158;2022-12-31T03:15:05;14.40;43.30
728;DHT22;347;48.780;9.158;2022-12-31T03:17:34;14.40;43.10
728;DHT22;347;48.780;9.158;2022-12-31T03:20:00;14.50;43.00
728;DHT22;347;48.780;9.158;2022-12-31T03:22:44;14.50;42.80
728;DHT22;347;48.780;9.158;2022-12-31T03:25:13;14.50;42.80
728;DHT22;347;48.780;9.158;2022-12-31T03:28:00;14.60;43.00
728;DHT22;347;48.780;9.158;2022-12-31T03:30:26;14.60;42.30
728;DHT22;347;48.780;9.158;2022-12-31T03:32:53;14.60;42.60
728;DHT22;347;48.780;9.158;2022-12-31T03:35:21;14.60;42.80
728;DHT22;347;48.780;9.158;2022-12-31T03:37:47;14.70;42.70
728;DHT22;347;48.780;9.158;2022-12-31T03:40:15;14.70;42.80
728;DHT22;347;48.780;9.158;2022-12-31T03:42:41;14.80;42.70
728;DHT22;347;48.780;9.158;2022-12-31T03:45:08;14.80;42.70
728;DHT22;347;48.780;9.158;2022-12-31T03:47:34;14.80;42.80
728;DHT22;347;48.780;9.158;2022-12-31T03:49:59;14.90;42.70
728;DHT22;347;48.780;9.158;2022-12-31T03:52:25;14.90;42.90
728;DHT22;347;48.780;9.158;2022-12-31T03:54:50;14.90;43.10
728;DHT22;347;48.780;9.158;2022-12-31T03:57:16;14.90;43.30
728;DHT22;347;48.780;9.158;2022-12-31T03:59:42;14.80;43.30
728;DHT22;347;48.780;9.158;2022-12-31T04:02:08;14.90;43.20
728;DHT22;347;48.780;9.158;2022-12-31T04:04:33;14.90;42.90
728;DHT22;347;48.780;9.158;2022-12-31T04:06:59;14.90;43.20
728;DHT22;347;48.780;9.158;2022-12-31T04:09:25;15.00;43.10
728;DHT22;347;48.780;9.158;2022-12-31T04:11:50;15.00;43.10
728;DHT22;347;48.780;9.158;2022-12-31T04:14:16;15.00;42.70
728;DHT22;347;48.780;9.158;2022-12-31T04:16:43;15.00;43.00
728;DHT22;347;48.780;9.158;2022-12-31T04:19:09;15.00;42.80
728;DHT22;347;48.780;9.158;2022-12-31T04:21:35;15.10;42.90
728;DHT22;347;48.780;9.158;2022-12-31T04:24:01;15.10;42.80
728;DHT22;347;48.780;9.158;2022-12-31T04:26:27;15.10;42.50
728;DHT22;347;48.780;9.158;2022-12-31T04:28:53;15.20;42.30
728;DHT22;347;48.780;9.158;2022-12-31T04:31:18;15.20;42.60
728;DHT22;347;48.780;9.158;2022-12-31T04:33:44;15.20;42.20
728;DHT22;347;48.780;9.158;2022-12-31T04:36:10;15.30;42.30
728;DHT22;347;48.780;9.158;2022-12-31T04:38:35;15.20;42.40
728;DHT22;347;48.780;9.158;2022-12-31T04:41:02;15.20;42.30
728;DHT22;347;48.780;9.158;2022-12-31T04:43:48;15.20;42.30
728;DHT22;347;48.780;9.158;2022-12-31T04:46:16;15.30;42.20
728;DHT22;347;48.780;9.158;2022-12-31T04:48:42;15.30;42.20
728;DHT22;347;48.780;9.158;2022-12-31T04:51:08;15.30;42.30
728;DHT22;347;48.780;9.158;2022-12-31T04:53:34;15.30;42.20
728;DHT22;347;48.780;9.158;2022-12-31T04:55:59;15.30;42.20
728;DHT22;347;48.780;9.158;2022-12-31T04:58:25;15.40;42.10
728;DHT22;347;48.780;9.158;2022-12-31T05:00:51;15.40;42.10
728;DHT22;347;48.780;9.158;2022-12-31T05:03:20;15.40;41.90
728;DHT22;347;48.780;9.158;2022-12-31T05:05:46;15.50;42.00
728;DHT22;347;48.780;9.158;2022-12-31T05:08:12;15.50;41.70
728;DHT22;347;48.780;9.158;2022-12-31T05:10:44;15.50;41.80
728;DHT22;347;48.780;9.158;2022-12-31T05:13:10;15.50;41.80
728;DHT22;347;48.780;9.158;2022-12-31T05:15:36;15.40;41.80
728;DHT22;347;48.780;9.158;2022-12-31T05:18:02;15.40;41.90
728;DHT22;347;48.780;9.158;2022-12-31T05:20:28;15.40;41.90
728;DHT22;347;48.780;9.158;2022-12-31T05:22:54;15.40;42.20
728;DHT22;347;48.780;9.158;2022-12-31T05:25:20;15.30;42.50
728;DHT22;347;48.780;9.158;2022-12-31T05:27:46;15.30;42.60
728;DHT22;347;48.780;9.158;2022-12-31T05:30:12;15.30;42.50
728;DHT22;347;48.780;9.158;2022-12-31T05:32:38;15.30;42.60
728;DHT22;347;48.780;9.158;2022-12-31T05:35:04;15.30;43.00
728;DHT22;347;48.780;9.158;2022-12-31T05:37:30;15.30;43.00
728;DHT22;347;48.780;9.158;2022-12-31T05:39:56;15.20;43.00
728;DHT22;347;48.780;9.158;2022-12-31T05:42:22;15.30;43.10
728;DHT22;347;48.780;9.158;2022-12-31T05:44:48;15.30;42.80
728;DHT22;347;48.780;9.158;2022-12-31T05:47:14;15.30;42.90
728;DHT22;347;48.780;9.158;2022-12-31T05:49:40;15.20;43.00
728;DHT22;347;48.780;9.158;2022-12-31T05:52:06;15.20;43.00
728;DHT22;347;48.780;9.158;2022-12-31T05:54:32;15.20;43.10
728;DHT22;347;48.780;9.158;2022-12-31T05:56:58;15.10;43.40
728;DHT22;347;48.780;9.158;2022-12-31T05:59:24;15.10;42.70
728;DHT22;347;48.780;9.158;2022-12-31T06:01:49;15.20;42.90
728;DHT22;347;48.780;9.158;2022-12-31T06:04:15;15.10;43.10
728;DHT22;347;48.780;9.158;2022-12-31T06:06:41;15.10;43.20
728;DHT22;347;48.780;9.158;2022-12-31T06:09:07;15.10;43.50
728;DHT22;347;48.780;9.158;2022-12-31T06:11:32;15.10;43.70
728;DHT22;347;48.780;9.158;2022-12-31T06:13:58;15.10;43.60
728;DHT22;347;48.780;9.158;2022-12-31T06:16:24;15.10;43.90
728;DHT22;347;48.780;9.158;2022-12-31T06:18:50;15.00;44.00
728;DHT22;347;48.780;9.158;2022-12-31T06:21:16;15.00;44.20
728;DHT22;347;48.780;9.158;2022-12-31T06:23:42;15.00;44.20
728;DHT22;347;48.780;9.158;2022-12-31T06:26:08;15.00;44.50
728;DHT22;347;48.780;9.158;2022-12-31T06:28:34;15.00;44.30
728;DHT22;347;48.780;9.158;2022-12-31T06:31:03;15.00;44.40
728;DHT22;347;48.780;9.158;2022-12-31T06:33:30;15.00;44.50
728;DHT22;347;48.780;9.158;2022-12-31T06:35:57;15.00;44.60
728;DHT22;347;48.780;9.158;2022-12-31T06:38:24;14.90;44.80
728;DHT22;347;48.780;9.158;2022-12-31T06:40:50;14.90;44.80
728;DHT22;347;48.780;9.158;2022-12-31T06:43:16;14.90;45.10
728;DHT22;347;48.780;9.158;2022-12-31T06:45:42;14.90;45.00
728;DHT22;347;48.780;9.158;2022-12-31T06:48:07;14.90;44.70
728;DHT22;347;48.780;9.158;2022-12-31T06:50:33;14.80;45.10
728;DHT22;347;48.780;9.158;2022-12-31T06:52:59;14.80;45.20
728;DHT22;347;48.780;9.158;2022-12-31T06:55:25;14.80;45.40
728;DHT22;347;48.780;9.158;2022-12-31T06:57:51;14.80;45.10
728;DHT22;347;48.780;9.158;2022-12-31T07:00:17;14.80;45.00
728;DHT22;347;48.780;9.158;2022-12-31T07:05:27;14.80;44.90
728;DHT22;347;48.780;9.158;2022-12-31T07:08:07;14.80;44.60
728;DHT22;347;48.780;9.158;2022-12-31T07:18:42;14.80;45.00
728;DHT22;347;48.780;9.158;2022-12-31T07:21:12;14.80;44.90
728;DHT22;347;48.780;9.158;2022-12-31T07:23:39;14.80;44.90
728;DHT22;347;48.780;9.158;2022-12-31T07:26:22;14.80;44.90
728;DHT22;347;48.780;9.158;2022-12-31T07:43:03;14.90;43.90
728;DHT22;347;48.780;9.158;2022-12-31T07:45:36;15.00;43.60
728;DHT22;347;48.780;9.158;2022-12-31T07:48:26;15.00;43.30
728;DHT22;347;48.780;9.158;2022-12-31T07:50:53;15.00;43.30
728;DHT22;347;48.780;9.158;2022-12-31T07:53:20;15.10;42.40
728;DHT22;347;48.780;9.158;2022-12-31T07:55:52;15.10;42.30
728;DHT22;347;48.780;9.158;2022-12-31T07:58:46;15.20;42.00
728;DHT22;347;48.780;9.158;2022-12-31T08:01:16;15.10;42.00
728;DHT22;347;48.780;9.158;2022-12-31T08:06:32;15.20;41.90
728;DHT22;347;48.780;9.158;2022-12-31T08:11:57;15.30;41.20
728;DHT22;347;48.780;9.158;2022-12-31T08:14:25;15.30;40.50
728;DHT22;347;48.780;9.158;2022-12-31T08:16:51;15.40;40.50
728;DHT22;347;48.780;9.158;2022-12-31T08:19:26;15.40;40.70
728;DHT22;347;48.780;9.158;2022-12-31T08:27:54;15.50;39.70
728;DHT22;347;48.780;9.158;2022-12-31T08:30:28;15.60;39.30
728;DHT22;347;48.780;9.158;2022-12-31T08:33:15;15.60;38.90
728;DHT22;347;48.780;9.158;2022-12-31T08:35:52;15.60;38.80
728;DHT22;347;48.780;9.158;2022-12-31T08:41:28;15.60;38.50
728;DHT22;347;48.780;9.158;2022-12-31T08:49:38;15.60;38.80
728;DHT22;347;48.780;9.158;2022-12-31T08:52:23;15.60;38.80
728;DHT22;347;48.780;9.158;2022-12-31T08:54:49;15.60;38.60
728;DHT22;347;48.780;9.158;2022-12-31T09:00:03;15.70;38.50
728;DHT22;347;48.780;9.158;2022-12-31T09:19:24;15.90;37.10
728;DHT22;347;48.780;9.158;2022-12-31T09:21:50;16.00;36.80
728;DHT22;347;48.780;9.158;2022-12-31T09:24:15;16.00;36.70
728;DHT22;347;48.780;9.158;2022-12-31T09:59:45;16.80;32.80
728;DHT22;347;48.780;9.158;2022-12-31T10:09:00;17.00;32.00
728;DHT22;347;48.780;9.158;2022-12-31T10:11:13;17.00;31.30
728;DHT22;347;48.780;9.158;2022-12-31T10:27:54;17.20;30.10
728;DHT22;347;48.780;9.158;2022-12-31T10:30:23;17.20;30.30
728;DHT22;347;48.780;9.158;2022-12-31T10:33:05;17.30;30.40
728;DHT22;347;48.780;9.158;2022-12-31T10:35:56;17.30;30.40
728;DHT22;347;48.780;9.158;2022-12-31T10:38:54;17.30;30.00
728;DHT22;347;48.780;9.158;2022-12-31T10:58:31;17.50;29.00
728;DHT22;347;48.780;9.158;2022-12-31T11:01:16;17.60;29.10
728;DHT22;347;48.780;9.158;2022-12-31T11:23:30;17.80;27.90
728;DHT22;347;48.780;9.158;2022-12-31T11:31:20;17.80;27.30
728;DHT22;347;48.780;9.158;2022-12-31T11:39:10;17.90;27.20
728;DHT22;347;48.780;9.158;2022-12-31T11:41:52;17.90;27.00
728;DHT22;347;48.780;9.158;2022-12-31T11:52:43;18.20;25.90
728;DHT22;347;48.780;9.158;2022-12-31T11:57:38;18.20;25.80
728;DHT22;347;48.780;9.158;2022-12-31T12:00:25;18.20;26.30
728;DHT22;347;48.780;9.158;2022-12-31T12:02:58;18.20;25.90
728;DHT22;347;48.780;9.158;2022-12-31T12:05:25;18.20;25.70
728;DHT22;347;48.780;9.158;2022-12-31T12:07:52;18.30;25.50
728;DHT22;347;48.780;9.158;2022-12-31T12:12:51;18.40;25.30
728;DHT22;347;48.780;9.158;2022-12-31T12:15:30;18.40;25.20
728;DHT22;347;48.780;9.158;2022-12-31T12:17:59;18.40;25.50
728;DHT22;347;48.780;9.158;2022-12-31T12:20:35;18.40;25.60
728;DHT22;347;48.780;9.158;2022-12-31T12:23:13;18.40;25.60
728;DHT22;347;48.780;9.158;2022-12-31T12:25:42;18.40;25.60
728;DHT22;347;48.780;9.158;2022-12-31T12:28:25;18.40;25.60
728;DHT22;347;48.780;9.158;2022-12-31T12:30:59;18.40;25.70
728;DHT22;347;48.780;9.158;2022-12-31T12:33:27;18.30;26.40
728;DHT22;347;48.780;9.158;2022-12-31T12:36:08;18.20;26.50
728;DHT22;347;48.780;9.158;2022-12-31T12:38:34;18.20;26.90
728;DHT22;347;48.780;9.158;2022-12-31T12:41:05;18.10;26.90
728;DHT22;347;48.780;9.158;2022-12-31T12:43:35;18.10;26.80
728;DHT22;347;48.780;9.158;2022-12-31T12:46:05;18.00;26.90
728;DHT22;347;48.780;9.158;2022-12-31T12:48:43;18.00;26.20
728;DHT22;347;48.780;9.158;2022-12-31T13:01:41;18.30;25.30
728;DHT22;347;48.780;9.158;2022-12-31T13:04:40;18.30;25.30
728;DHT22;347;48.780;9.158;2022-12-31T13:12:52;18.50;24.40
728;DHT22;347;48.780;9.158;2022-12-31T13:21:52;18.50;23.90
728;DHT22;347;48.780;9.158;2022-12-31T13:27:21;18.40;23.70
728;DHT22;347;48.780;9.158;2022-12-31T13:29:45;18.40;23.80
728;DHT22;347;48.780;9.158;2022-12-31T13:32:16;18.40;23.70
728;DHT22;347;48.780;9.158;2022-12-31T13:34:45;18.40;24.00
728;DHT22;347;48.780;9.158;2022-12-31T13:37:36;18.50;23.50
728;DHT22;347;48.780;9.158;2022-12-31T13:40:20;18.50;23.50
728;DHT22;347;48.780;9.158;2022-12-31T13:43:05;18.50;23.50
728;DHT22;347;48.780;9.158;2022-12-31T13:45:40;18.40;23.50
728;DHT22;347;48.780;9.158;2022-12-31T13:48:19;18.40;23.90
728;DHT22;347;48.780;9.158;2022-12-31T13:50:56;18.40;23.60
728;DHT22;347;48.780;9.158;2022-12-31T13:54:19;18.40;23.90
728;DHT22;347;48.780;9.158;2022-12-31T13:56:39;18.40;23.90
728;DHT22;347;48.780;9.158;2022-12-31T14:04:30;18.40;24.00
728;DHT22;347;48.780;9.158;2022-12-31T14:07:07;18.40;24.00
728;DHT22;347;48.780;9.158;2022-12-31T14:09:35;18.30;25.10
728;DHT22;347;48.780;9.158;2022-12-31T14:14:47;18.30;24.50
728;DHT22;347;48.780;9.158;2022-12-31T14:22:39;18.20;24.90
728;DHT22;347;48.780;9.158;2022-12-31T14:25:20;18.10;25.40
728;DHT22;347;48.780;9.158;2022-12-31T14:27:49;18.10;25.50
728;DHT22;347;48.780;9.158;2022-12-31T14:30:19;18.20;24.90
728;DHT22;347;48.780;9.158;2022-12-31T14:33:00;18.10;24.80
728;DHT22;347;48.780;9.158;2022-12-31T14:46:27;18.30;24.50
728;DHT22;347;48.780;9.158;2022-12-31T14:51:44;18.30;24.00
728;DHT22;347;48.780;9.158;2022-12-31T14:54:35;18.30;24.30
728;DHT22;347;48.780;9.158;2022-12-31T14:57:23;18.30;24.10
728;DHT22;347;48.780;9.158;2022-12-31T14:59:58;18.30;24.60
728;DHT22;347;48.780;9.158;2022-12-31T15:02:28;18.30;24.60
728;DHT22;347;48.780;9.158;2022-12-31T15:05:30;18.20;24.80
728;DHT22;347;48.780;9.158;2022-12-31T15:11:25;18.10;26.10
728;DHT22;347;48.780;9.158;2022-12-31T15:19:38;18.00;27.40
728;DHT22;347;48.780;9.158;2022-12-31T15:24:53;17.80;28.20
728;DHT22;347;48.780;9.158;2022-12-31T15:29:48;17.60;29.10
728;DHT22;347;48.780;9.158;2022-12-31T15:32:19;17.50;28.80
728;DHT22;347;48.780;9.158;2022-12-31T15:34:46;17.50;28.80
728;DHT22;347;48.780;9.158;2022-12-31T15:37:33;17.50;28.70
728;DHT22;347;48.780;9.158;2022-12-31T15:40:19;17.50;28.90
728;DHT22;347;48.780;9.158;2022-12-31T15:43:01;17.40;28.90
728;DHT22;347;48.780;9.158;2022-12-31T15:45:35;17.40;28.80
728;DHT22;347;48.780;9.158;2022-12-31T15:48:12;17.40;29.00
728;DHT22;347;48.780;9.158;2022-12-31T15:50:40;17.30;28.90
728;DHT22;347;48.780;9.158;2022-12-31T15:53:24;17.30;28.60
728;DHT22;347;48.780;9.158;2022-12-31T15:55:52;17.30;28.80
728;DHT22;347;48.780;9.158;2022-12-31T15:58:25;17.30;29.40
728;DHT22;347;48.780;9.158;2022-12-31T16:01:27;17.20;29.30
728;DHT22;347;48.780;9.158;2022-12-31T16:04:00;17.20;29.40
728;DHT22;347;48.780;9.158;2022-12-31T16:06:30;17.10;29.10
728;DHT22;347;48.780;9.158;2022-12-31T16:08:57;17.20;29.40
728;DHT22;347;48.780;9.158;2022-12-31T16:11:23;17.20;29.40
728;DHT22;347;48.780;9.158;2022-12-31T16:13:52;17.10;29.10
728;DHT22;347;48.780;9.158;2022-12-31T16:16:29;17.10;29.50
728;DHT22;347;48.780;9.158;2022-12-31T16:18:56;17.10;29.40
728;DHT22;347;48.780;9.158;2022-12-31T16:21:34;17.10;29.80
728;DHT22;347;48.780;9.158;2022-12-31T16:24:02;17.00;30.00
728;DHT22;347;48.780;9.158;2022-12-31T16:26:47;17.00;30.20
728;DHT22;347;48.780;9.158;2022-12-31T16:29:16;17.00;30.00
728;DHT22;347;48.780;9.158;2022-12-31T16:31:43;16.90;30.00
728;DHT22;347;48.780;9.158;2022-12-31T16:34:14;16.90;30.10
728;DHT22;347;48.780;9.158;2022-12-31T16:36:40;16.90;30.10
728;DHT22;347;48.780;9.158;2022-12-31T16:44:38;16.80;30.60
728;DHT22;347;48.780;9.158;2022-12-31T16:47:05;16.80;30.10
728;DHT22;347;48.780;9.158;2022-12-31T16:49:32;16.80;30.20
728;DHT22;347;48.780;9.158;2022-12-31T16:52:04;16.70;30.30
728;DHT22;347;48.780;9.158;2022-12-31T16:54:36;16.70;30.80
728;DHT22;347;48.780;9.158;2022-12-31T16:57:03;16.60;30.60
728;DHT22;347;48.780;9.158;2022-12-31T16:59:34;16.60;30.70
728;DHT22;347;48.780;9.158;2022-12-31T17:02:02;16.60;31.10
728;DHT22;347;48.780;9.158;2022-12-31T17:04:29;16.60;31.20
728;DHT22;347;48.780;9.158;2022-12-31T17:10:14;16.50;31.70
728;DHT22;347;48.780;9.158;2022-12-31T17:12:44;16.40;32.10
728;DHT22;347;48.780;9.158;2022-12-31T17:15:58;16.40;32.50
728;DHT22;347;48.780;9.158;2022-12-31T17:18:05;16.30;32.40
728;DHT22;347;48.780;9.158;2022-12-31T17:20:33;16.30;32.60
728;DHT22;347;48.780;9.158;2022-12-31T17:23:07;16.20;32.80
728;DHT22;347;48.780;9.158;2022-12-31T17:25:36;16.20;32.80
728;DHT22;347;48.780;9.158;2022-12-31T17:28:18;16.20;32.80
728;DHT22;347;48.780;9.158;2022-12-31T17:30:45;16.20;32.80
728;DHT22;347;48.780;9.158;2022-12-31T17:35:46;16.10;32.90
728;DHT22;347;48.780;9.158;2022-12-31T17:43:14;16.10;32.60
728;DHT22;347;48.780;9.158;2022-12-31T17:45:41;16.10;32.60
728;DHT22;347;48.780;9.158;2022-12-31T17:48:13;16.00;32.80
728;DHT22;347;48.780;9.158;2022-12-31T17:50:48;16.00;32.80
728;DHT22;347;48.780;9.158;2022-12-31T17:53:14;16.00;32.70
728;DHT22;347;48.780;9.158;2022-12-31T17:55:40;16.00;32.80
728;DHT22;347;48.780;9.158;2022-12-31T17:58:11;16.00;32.70
728;DHT22;347;48.780;9.158;2022-12-31T18:00:40;16.00;32.80
728;DHT22;347;48.780;9.158;2022-12-31T18:03:06;15.90;33.10
728;DHT22;347;48.780;9.158;2022-12-31T18:05:32;15.90;33.00
728;DHT22;347;48.780;9.158;2022-12-31T18:07:57;15.90;32.60
728;DHT22;347;48.780;9.158;2022-12-31T18:10:23;15.80;32.60
728;DHT22;347;48.780;9.158;2022-12-31T18:12:50;15.80;32.60
728;DHT22;347;48.780;9.158;2022-12-31T18:15:19;15.80;32.00
728;DHT22;347;48.780;9.158;2022-12-31T18:17:45;15.90;31.70
728;DHT22;347;48.780;9.158;2022-12-31T18:20:11;15.90;31.50
728;DHT22;347;48.780;9.158;2022-12-31T18:22:38;16.00;31.40
728;DHT22;347;48.780;9.158;2022-12-31T18:25:04;16.00;31.20
728;DHT22;347;48.780;9.158;2022-12-31T18:27:31;16.00;31.10
728;DHT22;347;48.780;9.158;2022-12-31T18:29:59;16.00;30.70
728;DHT22;347;48.780;9.158;2022-12-31T18:32:27;16.00;30.70
728;DHT22;347;48.780;9.158;2022-12-31T18:34:53;16.00;30.70
728;DHT22;347;48.780;9.158;2022-12-31T18:37:19;16.00;30.70
728;DHT22;347;48.780;9.158;2022-12-31T18:39:45;16.00;30.50
728;DHT22;347;48.780;9.158;2022-12-31T18:42:18;16.00;30.50
728;DHT22;347;48.780;9.158;2022-12-31T18:44:44;16.00;30.50
728;DHT22;347;48.780;9.158;2022-12-31T18:47:11;16.00;30.80
728;DHT22;347;48.780;9.158;2022-12-31T18:49:38;15.90;30.70
728;DHT22;347;48.780;9.158;2022-12-31T18:52:04;15.90;30.70
728;DHT22;347;48.780;9.158;2022-12-31T18:54:29;15.90;30.80
728;DHT22;347;48.780;9.158;2022-12-31T18:56:55;15.90;30.90
728;DHT22;347;48.780;9.158;2022-12-31T18:59:20;15.90;30.80
728;DHT22;347;48.780;9.158;2022-12-31T19:01:46;15.90;30.50
728;DHT22;347;48.780;9.158;2022-12-31T19:04:14;15.90;30.50
728;DHT22;347;48.780;9.158;2022-12-31T19:06:41;15.90;30.40
728;DHT22;347;48.780;9.158;2022-12-31T19:09:07;16.00;30.40
728;DHT22;347;48.780;9.158;2022-12-31T19:11:33;16.00;30.90
728;DHT22;347;48.780;9.158;2022-12-31T19:14:04;16.00;30.20
728;DHT22;347;48.780;9.158;2022-12-31T19:16:35;16.00;30.10
728;DHT22;347;48.780;9.158;2022-12-31T19:19:01;15.90;30.10
728;DHT22;347;48.780;9.158;2022-12-31T19:21:26;15.90;30.20
728;DHT22;347;48.780;9.158;2022-12-31T19:23:53;15.90;30.20
728;DHT22;347;48.780;9.158;2022-12-31T19:26:20;15.90;30.10
728;DHT22;347;48.780;9.158;2022-12-31T19:28:47;15.90;30.30
728;DHT22;347;48.780;9.158;2022-12-31T19:31:14;15.90;30.20
728;DHT22;347;48.780;9.158;2022-12-31T19:33:40;15.80;30.10
728;DHT22;347;48.780;9.158;2022-12-31T19:36:08;15.90;30.00
728;DHT22;347;48.780;9.158;2022-12-31T19:38:37;15.90;30.10
728;DHT22;347;48.780;9.158;2022-12-31T19:41:03;15.90;30.00
728;DHT22;347;48.780;9.158;2022-12-31T19:43:29;15.90;30.00
728;DHT22;347;48.780;9.158;2022-12-31T19:45:54;15.80;30.10
728;DHT22;347;48.780;9.158;2022-12-31T19:48:22;15.80;30.20
728;DHT22;347;48.780;9.158;2022-12-31T19:50:50;15.80;30.40
728;DHT22;347;48.780;9.158;2022-12-31T19:53:19;15.80;30.90
728;DHT22;347;48.780;9.158;2022-12-31T19:55:45;15.80;30.90
728;DHT22;347;48.780;9.158;2022-12-31T19:58:18;15.70;30.70
728;DHT22;347;48.780;9.158;2022-12-31T20:00:44;15.70;31.00
728;DHT22;347;48.780;9.158;2022-12-31T20:03:10;15.70;30.70
728;DHT22;347;48.780;9.158;2022-12-31T20:05:36;15.70;30.70
728;DHT22;347;48.780;9.158;2022-12-31T20:08:02;15.70;30.90
728;DHT22;347;48.780;9.158;2022-12-31T20:10:28;15.70;30.50
728;DHT22;347;48.780;9.158;2022-12-31T20:12:53;15.70;30.30
728;DHT22;347;48.780;9.158;2022-12-31T20:15:19;15.70;30.20
728;DHT22;347;48.780;9.158;2022-12-31T20:17:45;15.70;30.40
728;DHT22;347;48.780;9.158;2022-12-31T20:20:10;15.70;30.50
728;DHT22;347;48.780;9.158;2022-12-31T20:22:36;15.70;30.70
728;DHT22;347;48.780;9.158;2022-12-31T20:25:02;15.60;30.70
728;DHT22;347;48.780;9.158;2022-12-31T20:27:28;15.60;30.70
728;DHT22;347;48.780;9.158;2022-12-31T20:29:54;15.60;30.60
728;DHT22;347;48.780;9.158;2022-12-31T20:32:20;15.60;30.80
728;DHT22;347;48.780;9.158;2022-12-31T20:34:45;15.60;30.90
728;DHT22;347;48.780;9.158;2022-12-31T20:37:11;15.60;30.90
728;DHT22;347;48.780;9.158;2022-12-31T20:39:37;15.60;30.90
728;DHT22;347;48.780;9.158;2022-12-31T20:42:02;15.60;31.00
728;DHT22;347;48.780;9.158;2022-12-31T20:44:28;15.60;31.20
728;DHT22;347;48.780;9.158;2022-12-31T20:46:54;15.60;31.30
728;DHT22;347;48.780;9.158;2022-12-31T20:49:21;15.50;31.20
728;DHT22;347;48.780;9.158;2022-12-31T20:51:46;15.50;31.60
728;DHT22;347;48.780;9.158;2022-12-31T20:54:12;15.50;32.00
728;DHT22;347;48.780;9.158;2022-12-31T20:56:39;15.50;31.60
728;DHT22;347;48.780;9.158;2022-12-31T20:59:06;15.50;32.00
728;DHT22;347;48.780;9.158;2022-12-31T21:01:32;15.50;32.00
728;DHT22;347;48.780;9.158;2022-12-31T21:03:59;15.50;32.00
728;DHT22;347;48.780;9.158;2022-12-31T21:06:25;15.50;32.00
728;DHT22;347;48.780;9.158;2022-12-31T21:08:50;15.50;32.10
728;DHT22;347;48.780;9.158;2022-12-31T21:11:16;15.50;31.90
728;DHT22;347;48.780;9.158;2022-12-31T21:14:01;15.50;31.90
728;DHT22;347;48.780;9.158;2022-12-31T21:16:27;15.50;32.00
728;DHT22;347;48.780;9.158;2022-12-31T21:18:53;15.50;32.10
728;DHT22;347;48.780;9.158;2022-12-31T21:21:19;15.40;32.00
728;DHT22;347;48.780;9.158;2022-12-31T21:23:45;15.40;32.90
728;DHT22;347;48.780;9.158;2022-12-31T21:26:11;15.40;32.30
728;DHT22;347;48.780;9.158;2022-12-31T21:28:37;15.40;32.80
728;DHT22;347;48.780;9.158;2022-12-31T21:31:05;15.30;32.80
728;DHT22;347;48.780;9.158;2022-12-31T21:33:31;15.30;32.90
728;DHT22;347;48.780;9.158;2022-12-31T21:35:57;15.30;33.60